Time;durP1;ratioP1;P1;durP2;ratioP2;P2;SDS_P1;SDS_P2;PMS_P1;PMS_P2;Temp;Humidity;BMP_temperature;BMP_pressure;BME280_temperature;BME280_humidity;BME280_pressure;Samples;Min_cycle;Max_cycle;Signal;HPM_P1;HPM_P2
2023/07/07 00:01:15;;;;;;;7.60;5.50;;;;;;;13.72;70.24;100728.98;122491;1291;5442390;-70
2023/07/07 00:05:14;;;;;;;12.60;6.50;;;;;;;13.67;70.38;100733.53;126090;1298;114987;-69
2023/07/07 00:09:03;;;;;;;;;;;;;;;;;;;;;
2023/07/07 00:12:55;;;;;;;11.50;6.30;;;;;;;13.56;70.81;100736.71;125076;1321;128741;-68
2023/07/07 00:20:35;;;;;;;13.80;6.50;;;;;;;13.49;70.97;100740.83;125499;1300;638477;-68
2023/07/07 00:23:48;;;;;;;10.90;7.30;;;;;;;13.43;70.97;100742.23;128620;1294;128192;-67
2023/07/07 00:27:53;;;;;;;9.10;6.20;;;;;;;13.38;71.27;100739.24;128453;1271;114758;-68
2023/07/07 00:31:55;;;;;;;9.00;5.90;;;;;;;13.33;71.43;100744.16;127489;1285;114951;-68
2023/07/07 00:35:57;;;;;;;16.00;5.90;;;;;;;13.27;71.53;100745.18;122090;1314;5413471;-68
2023/07/07 00:39:41;;;;;;;10.90;6.40;;;;;;;13.23;71.47;100747.77;124742;1326;115063;-67
2023/07/07 00:47:58;;;;;;;;;;;;;;;;;;;;;
2023/07/07 00:51:59;;;;;;;12.40;6.90;;;;;;;13.10;72.21;100744.86;129130;1272;128823;-66
2023/07/07 00:56:02;;;;;;;10.30;5.80;;;;;;;13.05;72.36;100745.11;128862;1277;115216;-67
2023/07/07 01:00:06;;;;;;;10.60;6.30;;;;;;;13.01;72.29;100748.38;124952;1289;5720938;-69
2023/07/07 01:04:06;;;;;;;;;;;;;;;;;;;;;
2023/07/07 01:11:59;;;;;;;11.80;7.40;;;;;;;12.87;72.80;100751.21;126279;1291;129817;-64
2023/07/07 01:16:01;;;;;;;10.60;6.30;;;;;;;12.83;72.76;100758.08;126415;1292;115581;-67
2023/07/07 01:20:46;;;;;;;10.60;6.60;;;;;;;12.80;73.33;100758.96;128856;1266;114904;-68
2023/07/07 01:24:45;;;;;;;;;;;;;;;;;;;;;
2023/07/07 01:29:03;;;;;;;;;;;;;;;;;;;;;
2023/07/07 01:37:17;;;;;;;8.10;5.50;;;;;;;12.63;73.57;100770.20;128469;1296;114951;-67
2023/07/07 01:41:22;;;;;;;8.80;6.10;;;;;;;12.60;73.79;100770.73;127489;1284;114922;-69
2023/07/07 01:45:29;;;;;;;12.20;7.40;;;;;;;12.56;73.88;100770.95;127668;1284;114897;-68
2023/07/07 01:49:32;;;;;;;14.30;7.20;;;;;;;12.52;73.64;100772.35;127580;1280;115276;-70
2023/07/07 01:53:34;;;;;;;7.40;6.10;;;;;;;12.49;73.75;100778.63;127237;1300;128761;-68
2023/07/07 01:57:38;;;;;;;11.70;6.80;;;;;;;12.44;73.99;100782.42;126845;1308;115357;-69
2023/07/07 02:01:40;;;;;;;12.30;6.30;;;;;;;12.40;74.28;100779.94;126049;1314;115054;-67
2023/07/07 02:05:33;;;;;;;;;;;;;;;;;;;;;
2023/07/07 02:09:33;;;;;;;;;;;;;;;;;;;;;
2023/07/07 02:17:26;;;;;;;;;;;;;;;;;;;;;
2023/07/07 02:25:35;;;;;;;12.90;6.80;;;;;;;12.23;75.13;100780.58;125658;1301;636076;-68
2023/07/07 02:29:39;;;;;;;10.00;6.50;;;;;;;12.20;75.32;100784.88;128593;1282;129363;-66
2023/07/07 02:33:42;;;;;;;10.70;6.10;;;;;;;12.16;75.10;100782.02;127797;1300;115421;-67
2023/07/07 02:41:46;;;;;;;12.50;6.40;;;;;;;12.09;75.27;100778.75;125402;1315;114898;-70
2023/07/07 02:58:58;;;;;;;12.30;7.80;;;;;;;12.10;75.71;100780.89;125744;1304;638645;-66
2023/07/07 03:03:01;;;;;;;9.60;7.30;;;;;;;12.10;75.89;100781.21;128417;1277;128733;-68
2023/07/07 03:07:04;;;;;;;9.40;7.30;;;;;;;12.11;75.94;100789.58;126637;1309;114886;-67
2023/07/07 03:11:09;;;;;;;12.50;7.70;;;;;;;12.15;76.23;100787.09;121894;1303;5748224;-67
2023/07/07 03:23:29;;;;;;;;;;;;;;;;;;;;;
2023/07/07 03:27:33;;;;;;;8.90;7.10;;;;;;;12.37;76.33;100800.35;128395;1296;128844;-68
2023/07/07 03:31:38;;;;;;;11.40;6.50;;;;;;;12.45;76.52;100805.52;127631;1283;115213;-68
2023/07/07 03:35:43;;;;;;;15.60;7.50;;;;;;;12.55;76.47;100808.95;123235;1284;5424616;-67
2023/07/07 03:43:46;;;;;;;10.80;6.70;;;;;;;12.77;76.64;100818.41;125136;1302;114904;-67
2023/07/07 03:56:11;;;;;;;14.10;8.20;;;;;;;13.14;76.69;100832.89;125843;1299;636346;-68
2023/07/07 04:00:15;;;;;;;10.10;8.10;;;;;;;13.25;76.38;100836.43;127584;1302;128109;-66
2023/07/07 04:04:19;;;;;;;12.00;7.20;;;;;;;13.39;76.31;100837.16;125958;1306;115461;-67
2023/07/07 04:08:46;;;;;;;11.20;7.30;;;;;;;13.52;76.25;100835.59;121449;1321;5417777;-66
2023/07/07 04:17:14;;;;;;;10.30;6.70;;;;;;;13.87;75.90;100829.94;125322;1302;639234;-67
2023/07/07 04:21:42;;;;;;;8.70;6.80;;;;;;;14.08;75.88;100833.31;128490;1283;129067;-66
2023/07/07 04:25:20;;;;;;;8.10;6.30;;;;;;;14.26;75.59;100836.98;126557;1309;116450;-68
2023/07/07 04:29:24;;;;;;;11.70;6.40;;;;;;;14.42;75.43;100839.81;122076;1295;5490923;-65
2023/07/07 04:33:24;;;;;;;;;;;;;;;;;;;;;
2023/07/07 04:41:57;;;;;;;8.90;6.80;;;;;;;15.03;74.85;100846.94;125829;1311;636220;-68
2023/07/07 04:46:00;;;;;;;10.00;6.10;;;;;;;15.25;74.59;100851.06;128640;1294;128880;-67
2023/07/07 04:49:45;;;;;;;12.10;6.40;;;;;;;15.92;75.89;100854.66;127511;1301;114862;-67
2023/07/07 04:53:47;;;;;;;9.70;7.00;;;;;;;17.46;76.30;100851.22;123390;1280;5436165;-67
2023/07/07 04:57:44;;;;;;;7.90;5.30;;;;;;;19.44;74.39;100852.72;126381;1295;115031;-66
2023/07/07 05:01:35;;;;;;;9.80;5.00;;;;;;;21.24;71.41;100852.75;126459;1311;114955;-66
2023/07/07 05:04:55;;;;;;;8.60;4.70;;;;;;;22.90;68.55;100853.04;126207;1312;128445;-68
2023/07/07 05:12:20;;;;;;;5.60;4.40;;;;;;;25.56;63.45;100846.79;125538;1301;114776;-66
2023/07/07 05:16:22;;;;;;;5.50;4.10;;;;;;;26.53;60.78;100846.96;125570;1313;114830;-68
2023/07/07 05:20:24;;;;;;;7.80;4.60;;;;;;;27.57;58.18;100852.73;124816;1328;114919;-68
2023/07/07 05:24:17;;;;;;;;;;;;;;;;;;;;;
2023/07/07 05:32:47;;;;;;;6.80;4.60;;;;;;;29.86;50.29;100858.48;128565;1277;120120;-67
2023/07/07 05:40:52;;;;;;;8.90;4.30;;;;;;;30.66;47.25;100864.14;123956;1279;5456025;-67
2023/07/07 05:45:00;;;;;;;11.40;4.40;;;;;;;30.83;45.88;100867.44;126955;1308;114927;-66
2023/07/07 05:48:42;;;;;;;;;;;;;;;;;;;;;
2023/07/07 05:52:45;;;;;;;6.30;4.30;;;;;;;30.74;43.13;100863.67;125572;1299;115000;-66
2023/07/07 06:01:21;;;;;;;9.50;4.10;;;;;;;30.89;42.41;100869.88;125746;1300;638303;-67
2023/07/07 06:05:05;;;;;;;9.10;4.70;;;;;;;31.13;41.71;100872.59;127343;1306;120277;-67
2023/07/07 06:08:59;;;;;;;10.10;4.10;;;;;;;31.44;41.06;100879.23;127145;1306;114820;-67
2023/07/07 06:13:03;;;;;;;5.40;3.30;;;;;;;31.85;40.35;100881.55;122727;1311;5457729;-67
2023/07/07 06:21:04;;;;;;;;;;;;;;;;;;;;;
2023/07/07 06:25:03;;;;;;;;;;;;;;;;;;;;;
2023/07/07 06:29:01;;;;;;;;;;;;;;;;;;;;;
2023/07/07 06:33:06;;;;;;;8.20;4.10;;;;;;;33.91;36.46;100894.44;128500;1276;114855;-68
2023/07/07 15:27:40;;;;;;;17.10;5.20;;;;;;;26.06;31.44;100796.23;127262;1280;648290;-70
2023/07/07 15:30:42;;;;;;;5.10;2.50;;;;;;;26.13;31.17;100794.71;128829;1273;183928;-63
2023/07/07 15:33:45;;;;;;;4.00;2.10;;;;;;;26.11;31.12;100791.65;129417;1269;115640;-62
2023/07/07 15:36:47;;;;;;;2.90;2.00;;;;;;;26.12;30.90;100792.43;128941;1264;114917;-64
2023/07/07 15:39:49;;;;;;;2.50;2.10;;;;;;;26.09;30.91;100789.99;129273;1285;114712;-64
2023/07/07 15:42:52;;;;;;;3.50;2.00;;;;;;;26.08;30.68;100790.98;129368;1269;114805;-62
2023/07/07 15:45:54;;;;;;;3.80;2.00;;;;;;;26.08;30.78;100789.27;129229;1267;115274;-60
2023/07/07 15:48:57;;;;;;;5.00;3.30;;;;;;;26.09;30.87;100788.28;129162;1264;114788;-64
2023/07/07 15:51:59;;;;;;;2.40;2.00;;;;;;;26.09;31.02;100787.01;129102;1287;114814;-71
2023/07/07 15:55:01;;;;;;;3.40;2.00;;;;;;;26.07;30.62;100784.66;129181;1269;114744;-63
2023/07/07 15:58:09;;;;;;;2.80;2.30;;;;;;;26.04;31.08;100786.52;129120;1276;114784;-60
2023/07/07 16:01:11;;;;;;;3.70;2.10;;;;;;;26.03;31.39;100789.91;129067;1269;115196;-61
2023/07/07 16:04:14;;;;;;;2.40;1.90;;;;;;;26.01;31.39;100790.62;128872;1272;114936;-62
2023/07/07 16:07:16;;;;;;;2.20;2.00;;;;;;;25.99;31.17;100793.95;129258;1281;114798;-62
2023/07/07 16:10:18;;;;;;;2.50;2.10;;;;;;;25.95;30.90;100790.33;129302;1270;114720;-60
2023/07/07 16:13:20;;;;;;;2.80;1.90;;;;;;;25.92;30.88;100790.14;129169;1266;119810;-66
2023/07/07 16:16:26;;;;;;;3.50;2.30;;;;;;;25.89;30.42;100792.31;129815;1279;114731;-60
2023/07/07 16:19:28;;;;;;;2.10;1.80;;;;;;;25.87;30.50;100796.20;129549;1263;114858;-66
2023/07/07 16:22:44;;;;;;;2.20;2.00;;;;;;;25.86;30.68;100791.56;129833;1279;114774;-65
2023/07/07 16:25:46;;;;;;;2.80;1.70;;;;;;;25.86;30.74;100795.05;129495;1266;115173;-68
2023/07/07 16:28:48;;;;;;;5.10;1.80;;;;;;;25.84;30.58;100799.20;129755;1276;114728;-65
2023/07/07 16:31:50;;;;;;;2.70;1.50;;;;;;;25.83;30.49;100798.84;129699;1257;114739;-69
2023/07/07 16:34:52;;;;;;;3.10;2.30;;;;;;;25.79;30.53;100800.30;129749;1260;114779;-68
2023/07/07 16:37:54;;;;;;;4.20;2.00;;;;;;;25.77;30.61;100800.74;129477;1279;114901;-63
2023/07/07 16:40:58;;;;;;;2.10;1.90;;;;;;;25.74;30.65;100798.28;129795;1260;114724;-65
2023/07/07 16:44:01;;;;;;;2.40;2.00;;;;;;;25.70;30.57;100797.02;129715;1279;114847;-64
2023/07/07 16:47:22;;;;;;;2.40;1.90;;;;;;;25.65;30.57;100795.73;129727;1279;127734;-63
2023/07/07 16:50:31;;;;;;;2.50;1.70;;;;;;;25.64;30.76;100797.16;129927;1257;115107;-64
2023/07/07 16:53:39;;;;;;;2.70;1.90;;;;;;;25.64;30.42;100802.83;129973;1263;114715;-63
2023/07/07 16:56:55;;;;;;;3.70;2.00;;;;;;;25.62;30.49;100803.75;129924;1260;114709;-68
2023/07/07 17:00:12;;;;;;;2.80;2.00;;;;;;;25.58;30.42;100802.48;130001;1279;114782;-64
2023/07/07 17:03:14;;;;;;;3.40;1.90;;;;;;;25.55;30.02;100801.17;129656;1260;120044;-65
2023/07/07 17:06:21;;;;;;;4.00;2.00;;;;;;;25.53;30.26;100803.06;129865;1279;115239;-63
2023/07/07 17:09:23;;;;;;;6.80;2.40;;;;;;;25.49;30.45;100799.44;129670;1264;114953;-69
2023/07/07 17:12:25;;;;;;;3.80;2.10;;;;;;;25.43;30.51;100801.86;130199;1260;114717;-67
2023/07/07 17:15:31;;;;;;;3.10;1.80;;;;;;;25.39;30.48;100799.15;129965;1255;115203;-65
2023/07/07 17:18:37;;;;;;;5.40;2.60;;;;;;;25.38;30.53;100804.80;129889;1279;115267;-67
2023/07/07 17:21:42;;;;;;;2.70;2.00;;;;;;;25.37;30.83;100800.16;129965;1279;128186;-64
2023/07/07 17:24:44;;;;;;;2.20;2.00;;;;;;;25.32;30.69;100801.37;129651;1257;114801;-68
2023/07/07 17:27:49;;;;;;;6.30;2.00;;;;;;;25.29;30.62;100799.66;129836;1276;114731;-65
2023/07/07 17:30:51;;;;;;;4.60;2.00;;;;;;;25.27;30.95;100797.12;130254;1260;114725;-62
2023/07/07 17:33:57;;;;;;;4.50;1.70;;;;;;;25.25;31.19;100795.87;130272;1260;114795;-62
2023/07/07 17:36:58;;;;;;;3.30;2.20;;;;;;;25.22;31.36;100793.83;129652;1267;128549;-68
2023/07/07 17:40:08;;;;;;;2.70;2.30;;;;;;;25.17;31.23;100796.09;129981;1259;114801;-65
2023/07/07 17:43:11;;;;;;;2.60;2.00;;;;;;;25.14;31.14;100799.20;130055;1259;114702;-61
2023/07/07 17:46:36;;;;;;;3.00;1.90;;;;;;;25.12;31.12;100798.06;129823;1257;114789;-61
2023/07/07 17:49:38;;;;;;;7.50;2.30;;;;;;;25.11;31.23;100802.65;129683;1279;114727;-61
2023/07/07 17:52:41;;;;;;;2.10;1.90;;;;;;;25.06;31.39;100800.17;129672;1279;127598;-64
2023/07/07 17:55:43;;;;;;;2.90;2.50;;;;;;;24.98;31.69;100804.30;129574;1272;115344;-64
2023/07/07 17:58:46;;;;;;;3.50;1.90;;;;;;;24.89;31.54;100804.26;130898;1256;114992;-62
2023/07/07 18:01:51;;;;;;;3.00;2.50;;;;;;;24.83;31.56;100804.02;130087;1261;114763;-61
2023/07/07 18:04:53;;;;;;;3.70;2.30;;;;;;;24.75;31.68;100804.09;129824;1263;114872;-61
2023/07/07 18:07:56;;;;;;;3.60;2.20;;;;;;;24.69;31.77;100801.73;129680;1278;114782;-63
2023/07/07 18:10:58;;;;;;;2.70;2.50;;;;;;;24.63;32.15;100802.48;129850;1259;114741;-61
2023/07/07 18:14:00;;;;;;;2.60;2.10;;;;;;;24.56;32.15;100801.52;129915;1279;114730;-60
2023/07/07 18:17:03;;;;;;;5.50;2.10;;;;;;;24.49;32.42;100802.67;129628;1279;116449;-64
2023/07/07 18:20:29;;;;;;;5.10;2.40;;;;;;;24.38;32.70;100801.50;129972;1259;114772;-61
2023/07/07 18:23:31;;;;;;;4.40;3.20;;;;;;;24.25;33.30;100800.27;129456;1260;115349;-61
2023/07/07 18:26:35;;;;;;;3.90;3.00;;;;;;;24.13;33.09;100800.59;129924;1280;114747;-61
2023/07/07 18:29:38;;;;;;;3.30;2.10;;;;;;;24.02;33.57;100801.80;129436;1257;128733;-62
2023/07/07 18:32:40;;;;;;;5.10;2.70;;;;;;;23.90;33.80;100806.21;129824;1277;114728;-63
2023/07/07 18:35:42;;;;;;;3.10;2.30;;;;;;;23.79;33.87;100804.01;130046;1272;114722;-65
2023/07/07 18:38:44;;;;;;;7.30;3.20;;;;;;;23.69;34.35;100803.74;129807;1260;114801;-66
2023/07/07 18:41:47;;;;;;;8.00;4.00;;;;;;;23.58;34.59;100805.33;130025;1260;115379;-62
2023/07/07 18:44:49;;;;;;;9.50;5.80;;;;;;;23.47;35.13;100801.65;129983;1279;114726;-63
2023/07/07 18:47:56;;;;;;;9.60;6.00;;;;;;;23.34;35.71;100805.65;129818;1267;115137;-61
2023/07/07 18:50:58;;;;;;;5.40;3.40;;;;;;;23.18;36.42;100810.70;129889;1279;115214;-62
2023/07/07 18:54:00;;;;;;;7.10;3.70;;;;;;;23.03;36.71;100813.84;129744;1259;114731;-61
2023/07/07 18:57:03;;;;;;;5.60;3.40;;;;;;;22.86;36.81;100810.42;129897;1279;114830;-60
2023/07/07 19:00:36;;;;;;;5.80;3.10;;;;;;;22.71;37.30;100814.54;129831;1279;114728;-63
2023/07/07 19:03:38;;;;;;;5.60;3.50;;;;;;;22.53;38.08;100808.43;129649;1261;114906;-61
2023/07/07 19:06:43;;;;;;;9.00;5.60;;;;;;;22.36;38.42;100811.42;129977;1259;115321;-60
2023/07/07 19:09:49;;;;;;;11.90;7.00;;;;;;;22.19;38.69;100813.67;129893;1260;114727;-60
2023/07/07 19:12:51;;;;;;;11.90;7.20;;;;;;;22.02;39.15;100815.86;129617;1259;114859;-60
2023/07/07 19:15:54;;;;;;;8.00;5.20;;;;;;;21.86;39.57;100817.33;129714;1279;114734;-63
2023/07/07 19:18:57;;;;;;;6.00;3.30;;;;;;;21.70;40.13;100824.35;129735;1279;114799;-64
2023/07/07 19:22:00;;;;;;;6.10;3.10;;;;;;;21.54;40.38;100825.17;129776;1260;114703;-61
2023/07/07 19:25:03;;;;;;;6.60;4.00;;;;;;;21.37;40.82;100825.33;129837;1279;114821;-62
2023/07/07 19:28:16;;;;;;;5.00;3.30;;;;;;;21.21;41.14;100824.58;130073;1254;114808;-63
2023/07/07 19:31:19;;;;;;;5.50;3.30;;;;;;;21.04;41.64;100830.19;129837;1272;114785;-61
2023/07/07 19:34:22;;;;;;;10.80;4.00;;;;;;;20.88;42.07;100830.42;129768;1276;114914;-64
2023/07/07 19:37:24;;;;;;;11.50;5.50;;;;;;;20.74;42.46;100834.35;130059;1254;114824;-64
2023/07/07 19:40:30;;;;;;;9.70;5.20;;;;;;;20.59;42.87;100833.38;130293;1257;114725;-61
2023/07/07 19:43:33;;;;;;;9.40;5.80;;;;;;;20.45;43.48;100835.61;130086;1254;114725;-65
2023/07/07 19:46:35;;;;;;;10.10;6.10;;;;;;;20.31;44.07;100836.98;130126;1256;114693;-63
2023/07/07 19:49:37;;;;;;;9.20;4.70;;;;;;;20.16;44.34;100834.72;130161;1276;115237;-61
2023/07/07 19:52:40;;;;;;;12.90;5.60;;;;;;;20.02;44.81;100837.63;130279;1253;115969;-63
2023/07/07 19:55:43;;;;;;;6.40;4.60;;;;;;;19.89;45.21;100839.25;130036;1276;128010;-61
2023/07/07 19:58:47;;;;;;;9.30;4.30;;;;;;;19.76;45.65;100838.61;130187;1257;114795;-59
2023/07/07 20:01:49;;;;;;;10.80;5.40;;;;;;;19.64;46.35;100837.79;130273;1257;115073;-63
2023/07/07 20:04:51;;;;;;;9.00;4.40;;;;;;;19.50;46.69;100833.20;130141;1276;114820;-63
2023/07/07 20:07:54;;;;;;;7.50;4.70;;;;;;;19.38;46.94;100836.15;130167;1257;114801;-66
2023/07/07 20:10:57;;;;;;;7.90;5.00;;;;;;;19.25;47.55;100839.46;130156;1276;114791;-61
2023/07/07 20:14:00;;;;;;;7.40;4.50;;;;;;;19.14;47.99;100837.84;130133;1254;128828;-67
2023/07/07 20:17:03;;;;;;;9.80;4.30;;;;;;;19.03;48.30;100841.77;129995;1276;114770;-64
2023/07/07 20:20:20;;;;;;;5.20;3.80;;;;;;;18.92;48.85;100842.71;130149;1254;114832;-64
2023/07/07 20:23:21;;;;;;;6.70;3.70;;;;;;;18.81;49.12;100846.61;129879;1256;115034;-65
2023/07/07 20:26:25;;;;;;;8.80;5.20;;;;;;;18.71;49.52;100847.41;130029;1256;114796;-61
2023/07/07 20:29:27;;;;;;;10.40;5.80;;;;;;;18.61;49.55;100846.29;130045;1275;114779;-65
2023/07/07 20:32:29;;;;;;;6.70;4.30;;;;;;;18.52;49.97;100847.73;130126;1254;115719;-65
2023/07/07 20:35:31;;;;;;;8.20;3.70;;;;;;;18.42;50.43;100850.04;130001;1260;115166;-63
2023/07/07 20:38:34;;;;;;;5.60;4.70;;;;;;;18.32;50.92;100851.50;130126;1276;115160;-64
2023/07/07 20:41:36;;;;;;;29.00;15.10;;;;;;;18.23;51.19;100850.58;130337;1254;114769;-61
2023/07/07 20:44:39;;;;;;;16.70;8.80;;;;;;;18.14;51.36;100850.46;130301;1257;115084;-59
2023/07/07 20:47:42;;;;;;;12.90;5.60;;;;;;;18.05;51.72;100855.44;129985;1276;114760;-62
2023/07/07 20:50:53;;;;;;;9.20;6.80;;;;;;;17.96;52.23;100858.45;130046;1276;114804;-60
2023/07/07 20:53:57;;;;;;;10.90;7.70;;;;;;;17.86;52.49;100861.64;130059;1276;115246;-62
2023/07/07 20:56:59;;;;;;;6.30;4.70;;;;;;;17.78;52.67;100862.41;130090;1276;115275;-68
2023/07/07 21:00:14;;;;;;;10.20;5.20;;;;;;;17.69;52.97;100866.46;130064;1257;114820;-66
2023/07/07 21:03:17;;;;;;;9.10;6.10;;;;;;;17.60;53.43;100870.16;130120;1257;115030;-68
2023/07/07 21:06:22;;;;;;;7.70;5.80;;;;;;;17.52;53.63;100871.63;130103;1276;114731;-67
2023/07/07 21:09:24;;;;;;;8.90;6.20;;;;;;;17.43;54.11;100869.73;130135;1256;115842;-67
2023/07/07 21:12:27;;;;;;;9.50;5.30;;;;;;;17.35;54.31;100873.33;130044;1272;115301;-67
2023/07/07 21:15:29;;;;;;;7.30;4.80;;;;;;;17.27;54.62;100869.55;130282;1276;114699;-67
2023/07/07 21:18:31;;;;;;;10.70;6.80;;;;;;;17.19;54.85;100873.69;130463;1276;114959;-68
2023/07/07 21:21:33;;;;;;;7.60;4.70;;;;;;;17.12;55.33;100872.36;129877;1276;114852;-69
2023/07/07 21:24:35;;;;;;;11.40;5.90;;;;;;;17.06;55.70;100874.98;130007;1276;115105;-68
2023/07/07 21:27:38;;;;;;;9.20;5.60;;;;;;;16.98;56.34;100875.96;129973;1276;114757;-67
2023/07/07 21:30:41;;;;;;;6.20;5.20;;;;;;;16.92;56.20;100874.40;130168;1276;115137;-61
2023/07/07 21:33:43;;;;;;;9.70;4.60;;;;;;;16.85;56.68;100873.77;130425;1256;115419;-60
2023/07/07 21:36:46;;;;;;;7.00;5.70;;;;;;;16.78;56.80;100873.89;130167;1256;114781;-60
2023/07/07 21:39:48;;;;;;;9.50;5.50;;;;;;;16.71;57.19;100873.44;130380;1254;114759;-60
2023/07/07 21:42:51;;;;;;;7.40;4.80;;;;;;;16.64;57.47;100876.77;130185;1254;114779;-60
2023/07/07 21:45:53;;;;;;;9.40;5.70;;;;;;;16.58;57.98;100877.51;129544;1254;127479;-59
2023/07/07 21:48:55;;;;;;;8.00;5.90;;;;;;;16.51;58.30;100880.32;130162;1257;114715;-60
2023/07/07 21:52:00;;;;;;;8.20;5.20;;;;;;;16.46;58.42;100884.27;130023;1254;115129;-61
2023/07/07 21:55:04;;;;;;;7.20;6.20;;;;;;;16.41;59.03;100891.08;130015;1254;114715;-60
2023/07/07 21:58:08;;;;;;;8.70;5.70;;;;;;;16.36;59.22;100891.23;130103;1267;114654;-60
2023/07/07 22:01:11;;;;;;;7.10;5.60;;;;;;;16.31;59.36;100897.64;129895;1269;114721;-61
2023/07/07 22:04:13;;;;;;;11.80;7.50;;;;;;;16.25;59.68;100896.23;129918;1276;114829;-60
2023/07/07 22:07:16;;;;;;;11.80;6.20;;;;;;;16.19;59.80;100906.52;129941;1260;114752;-64
2023/07/07 22:10:38;;;;;;;9.90;6.50;;;;;;;16.14;59.98;100906.67;130133;1256;114712;-60
2023/07/07 22:13:40;;;;;;;12.20;6.80;;;;;;;16.07;60.52;100904.94;129904;1254;114895;-60
2023/07/07 22:16:43;;;;;;;11.70;8.00;;;;;;;16.02;61.18;100906.50;130007;1256;114718;-61
2023/07/07 22:19:44;;;;;;;10.70;7.10;;;;;;;16.01;61.39;100902.81;130002;1254;114814;-61
2023/07/07 22:22:47;;;;;;;9.90;7.00;;;;;;;15.98;61.92;100897.36;130067;1256;115289;-59
2023/07/07 22:25:49;;;;;;;13.20;8.40;;;;;;;15.93;61.58;100896.05;130180;1254;114705;-62
2023/07/07 22:28:51;;;;;;;7.60;6.50;;;;;;;15.89;61.57;100894.52;129811;1260;115183;-59
2023/07/07 22:31:57;;;;;;;9.80;7.40;;;;;;;15.84;62.22;100894.08;130206;1254;114697;-64
2023/07/07 22:34:59;;;;;;;10.30;7.30;;;;;;;15.79;62.55;100894.17;130106;1254;114754;-63
2023/07/07 22:38:03;;;;;;;9.40;6.50;;;;;;;15.75;62.44;100896.98;129975;1264;114770;-63
2023/07/07 22:41:10;;;;;;;10.40;7.50;;;;;;;15.70;62.59;100894.73;129951;1257;114779;-63
2023/07/07 22:44:13;;;;;;;12.50;7.40;;;;;;;15.65;62.97;100898.69;130016;1276;128645;-62
2023/07/07 22:47:15;;;;;;;10.10;7.30;;;;;;;15.59;63.03;100897.41;130053;1276;115199;-63
2023/07/07 22:50:23;;;;;;;11.70;7.90;;;;;;;15.54;63.09;100897.33;130017;1276;115107;-63
2023/07/07 22:53:25;;;;;;;12.80;8.20;;;;;;;15.49;63.28;100900.16;130053;1276;115032;-61
2023/07/07 22:56:30;;;;;;;15.30;7.80;;;;;;;15.43;63.36;100896.77;129912;1257;114786;-62
2023/07/07 22:59:32;;;;;;;10.30;7.80;;;;;;;15.37;63.68;100899.10;129654;1276;114818;-62
2023/07/07 23:02:34;;;;;;;15.70;10.50;;;;;;;15.31;63.66;100899.61;129918;1257;114710;-62
2023/07/07 23:05:39;;;;;;;11.90;8.30;;;;;;;15.25;63.92;100898.52;130041;1257;114703;-64
2023/07/07 23:08:41;;;;;;;12.20;8.40;;;;;;;15.20;64.15;100891.45;130090;1259;114731;-61
2023/07/07 23:11:43;;;;;;;12.30;8.30;;;;;;;15.15;64.22;100895.52;130015;1257;114705;-61
2023/07/07 23:14:46;;;;;;;14.00;9.30;;;;;;;15.10;64.37;100897.45;130119;1256;114967;-61
2023/07/07 23:17:49;;;;;;;14.80;9.50;;;;;;;15.04;64.46;100900.12;130141;1272;114784;-63
2023/07/07 23:20:51;;;;;;;15.10;8.50;;;;;;;14.99;64.53;100899.70;129774;1255;114869;-63
2023/07/07 23:23:53;;;;;;;15.00;8.90;;;;;;;14.95;64.79;100900.52;129898;1254;115453;-60
2023/07/07 23:26:58;;;;;;;14.40;9.20;;;;;;;14.90;64.86;100900.41;130108;1254;115422;-61
2023/07/07 23:30:21;;;;;;;;;;;;;;;14.85;65.22;100895.99;129741;1259;114911;-60
2023/07/07 23:33:23;;;;;;;14.30;8.00;;;;;;;14.79;65.33;100892.21;130065;1259;115083;-60
2023/07/07 23:36:33;;;;;;;12.60;8.10;;;;;;;14.74;65.35;100884.42;130001;1259;115315;-58
2023/07/07 23:39:35;;;;;;;14.10;9.50;;;;;;;14.70;65.42;100881.98;130007;1259;114715;-62
2023/07/07 23:42:37;;;;;;;14.60;9.00;;;;;;;14.65;66.13;100882.02;129979;1276;114782;-60
2023/07/07 23:45:40;;;;;;;16.80;8.50;;;;;;;14.63;66.48;100879.45;130061;1257;115315;-59
2023/07/07 23:48:45;;;;;;;18.40;9.00;;;;;;;14.60;66.33;100880.32;130160;1254;115163;-60
2023/07/07 23:51:47;;;;;;;12.90;9.00;;;;;;;14.57;66.28;100878.34;130100;1256;114805;-60
2023/07/07 23:54:49;;;;;;;12.60;8.50;;;;;;;14.53;66.42;100879.46;130096;1256;115138;-59
2023/07/07 23:57:53;;;;;;;13.10;8.10;;;;;;;14.49;66.45;100873.63;130096;1256;114844;-60
